PWSweather.com
Personal Weather Stations
Station Observations

ChardChardGB

Lat: 50.877408, Lon: -2.94964741

Elevation: 341

Station Type: WS3083

http://www.merriott-astro.co.uk/weather/index.htm

High Low Average
Temperature 94.1°F34.5°C 31.5°F-0.3°C 41.3°F5.2°C
Dew Point 58.9°F14.9°C 22.4°F-5.3°C 31.3°F-0.4°C
Winds 26.6 mph 42.8 kmh 0.3 mph 0.5 kmh 11.0 mph WSW17.7 kmh WSW
Wind Gusts 106.0 mph170.6 kmh 0.7 mph1.1 kmh 17.0 mph27.4 kmh
Humidity 83% 31% 68%
Pressure 29.60 in1002.4 mb 29.17 in987.8 mb -
Precipitation 0.90 in22.9 mm - -
Hour Temp Dew Point Humidity Winds Wind Gusts Pressure Precip Precip Rate Daily Precip Total
12:00 AM 40.5°F4.7°C 33.2°F0.7°C 75% 14.7 mph SW23.7 kmh SW 22.8 mph36.7 kmh 29.52 in999.7 mb 0.02 in0.5 mm 0.00 in0.0 mm 0.02 in0.5 mm
12:10 AM 40.6°F4.8°C 33.0°F0.6°C 74% 9.1 mph S14.6 kmh S 14.5 mph23.3 kmh 29.51 in999.3 mb 0.02 in0.5 mm 0.00 in0.0 mm 0.02 in0.5 mm
12:20 AM 41.2°F5.1°C 33.9°F1.1°C 75% 11.6 mph S18.7 kmh S 26.6 mph42.8 kmh 29.50 in999.0 mb 0.02 in0.5 mm 0.00 in0.0 mm 0.01 in0.3 mm
12:30 AM 41.9°F5.5°C 34.2°F1.2°C 74% 11.5 mph SW18.5 kmh SW 19.0 mph30.6 kmh 29.49 in998.6 mb 0.02 in0.5 mm 0.00 in0.0 mm 0.01 in0.3 mm
12:40 AM 42.3°F5.7°C 34.2°F1.2°C 73% 14.4 mph SSW23.2 kmh SSW 18.3 mph29.5 kmh 29.48 in998.3 mb 0.02 in0.5 mm 0.00 in0.0 mm 0.01 in0.3 mm
12:50 AM 42.6°F5.9°C 34.2°F1.2°C 72% 14.7 mph SSW23.7 kmh SSW 19.0 mph30.6 kmh 29.47 in998.0 mb 0.02 in0.5 mm 0.00 in0.0 mm 0.01 in0.3 mm
01:00 AM 41.9°F5.5°C 33.9°F1.1°C 73% 18.6 mph SSW29.9 kmh SSW 27.3 mph43.9 kmh 29.47 in998.0 mb 0.05 in1.3 mm 0.04 in1.0 mm 0.05 in1.3 mm
01:10 AM 41.0°F5.0°C 33.4°F0.8°C 74% 18.0 mph SSW29.0 kmh SSW 23.5 mph37.8 kmh 29.46 in997.6 mb 0.05 in1.3 mm 0.00 in0.0 mm 0.05 in1.3 mm
01:20 AM 41.2°F5.1°C 33.5°F0.8°C 74% 11.4 mph SSW18.3 kmh SSW 15.9 mph25.6 kmh 29.45 in997.3 mb 0.04 in1.0 mm 0.00 in0.0 mm 0.05 in1.3 mm
01:30 AM 41.4°F5.2°C 34.0°F1.1°C 75% 16.3 mph S26.2 kmh S 26.6 mph42.8 kmh 29.45 in997.3 mb 0.05 in1.3 mm 0.06 in1.5 mm 0.06 in1.5 mm
01:40 AM 41.5°F5.3°C 34.5°F1.4°C 76% 15.0 mph SSW24.1 kmh SSW 18.3 mph29.5 kmh 29.44 in997.0 mb 0.05 in1.3 mm 0.00 in0.0 mm 0.06 in1.5 mm
01:50 AM 42.1°F5.6°C 35.1°F1.7°C 76% 13.7 mph SSW22.0 kmh SSW 18.3 mph29.5 kmh 29.43 in996.6 mb 0.05 in1.3 mm 0.00 in0.0 mm 0.06 in1.5 mm
02:00 AM 42.4°F5.8°C 34.8°F1.6°C 74% 14.5 mph SSW23.3 kmh SSW 19.0 mph30.6 kmh 29.42 in996.3 mb 0.01 in0.3 mm 0.00 in0.0 mm 0.06 in1.5 mm
02:10 AM 42.6°F5.9°C 34.6°F1.4°C 73% 14.1 mph SSW22.7 kmh SSW 21.3 mph34.3 kmh 29.41 in995.9 mb 0.01 in0.3 mm 0.00 in0.0 mm 0.06 in1.5 mm
02:20 AM 43.0°F6.1°C 34.6°F1.4°C 72% 15.2 mph SW24.5 kmh SW 21.3 mph34.3 kmh 29.40 in995.6 mb 0.01 in0.3 mm 0.00 in0.0 mm 0.06 in1.5 mm
02:30 AM 43.2°F6.2°C 34.4°F1.3°C 71% 14.6 mph S23.5 kmh S 22.1 mph35.6 kmh 29.39 in995.3 mb 0.00 in0.0 mm 0.00 in0.0 mm 0.06 in1.5 mm
02:40 AM 43.3°F6.3°C 34.2°F1.2°C 70% 14.1 mph SSW22.7 kmh SSW 21.3 mph34.3 kmh 29.37 in994.6 mb 0.00 in0.0 mm 0.00 in0.0 mm 0.06 in1.5 mm
02:50 AM 43.3°F6.3°C 34.2°F1.2°C 70% 16.8 mph SW27.0 kmh SW 23.5 mph37.8 kmh 29.37 in994.6 mb 0.00 in0.0 mm 0.00 in0.0 mm 0.06 in1.5 mm
03:00 AM 43.2°F6.2°C 34.1°F1.2°C 70% 16.7 mph S26.9 kmh S 25.9 mph41.7 kmh 29.36 in994.2 mb 0.00 in0.0 mm 0.00 in0.0 mm 0.06 in1.5 mm
03:10 AM 43.0°F6.1°C 34.2°F1.2°C 71% 16.4 mph SSW26.4 kmh SSW 25.9 mph41.7 kmh 29.35 in993.9 mb 0.00 in0.0 mm 0.00 in0.0 mm 0.06 in1.5 mm
03:20 AM 43.2°F6.2°C 34.1°F1.2°C 70% 16.3 mph S26.2 kmh S 22.8 mph36.7 kmh 29.34 in993.6 mb 0.00 in0.0 mm 0.00 in0.0 mm 0.06 in1.5 mm
03:30 AM 43.3°F6.3°C 34.2°F1.2°C 70% 17.3 mph SSW27.8 kmh SSW 21.3 mph34.3 kmh 29.33 in993.2 mb 0.00 in0.0 mm 0.00 in0.0 mm 0.06 in1.5 mm
03:40 AM 43.3°F6.3°C 34.2°F1.2°C 70% 19.1 mph SSW30.7 kmh SSW 27.3 mph43.9 kmh 29.32 in992.9 mb 0.00 in0.0 mm 0.00 in0.0 mm 0.06 in1.5 mm
03:50 AM 43.3°F6.3°C 34.2°F1.2°C 70% 16.9 mph SE27.2 kmh SE 27.3 mph43.9 kmh 29.31 in992.6 mb 0.00 in0.0 mm 0.00 in0.0 mm 0.06 in1.5 mm
04:00 AM 43.3°F6.3°C 34.2°F1.2°C 70% 14.7 mph S23.7 kmh S 19.0 mph30.6 kmh 29.29 in991.9 mb 0.00 in0.0 mm 0.00 in0.0 mm 0.06 in1.5 mm
04:10 AM 43.3°F6.3°C 34.2°F1.2°C 70% 17.6 mph S28.3 kmh S 21.3 mph34.3 kmh 29.28 in991.5 mb 0.00 in0.0 mm 0.00 in0.0 mm 0.06 in1.5 mm
04:20 AM 43.3°F6.3°C 34.6°F1.4°C 71% 17.7 mph SSW28.5 kmh SSW 25.1 mph40.4 kmh 29.28 in991.5 mb 0.00 in0.0 mm 0.00 in0.0 mm 0.06 in1.5 mm
04:30 AM 42.8°F6.0°C 34.4°F1.3°C 72% 15.1 mph WSW24.3 kmh WSW 22.1 mph35.6 kmh 29.27 in991.2 mb 0.00 in0.0 mm 0.00 in0.0 mm 0.06 in1.5 mm
04:40 AM 42.6°F5.9°C 34.9°F1.6°C 74% 18.2 mph SSW29.3 kmh SSW 22.8 mph36.7 kmh 29.26 in990.9 mb 0.01 in0.3 mm 0.06 in1.5 mm 0.07 in1.8 mm
04:50 AM 42.1°F5.6°C 34.4°F1.3°C 74% 20.4 mph SSW32.8 kmh SSW 28.2 mph45.4 kmh 29.26 in990.9 mb 0.04 in1.0 mm 0.18 in4.6 mm 0.09 in2.3 mm
05:00 AM 41.7°F5.4°C 34.7°F1.5°C 76% 16.5 mph SW26.6 kmh SW 20.6 mph33.2 kmh 29.25 in990.5 mb 0.06 in1.5 mm 0.02 in0.5 mm 0.12 in3.0 mm
05:10 AM 41.7°F5.4°C 35.4°F1.9°C 78% 19.3 mph SSW31.1 kmh SSW 25.1 mph40.4 kmh 29.25 in990.5 mb 0.11 in2.8 mm 0.30 in7.6 mm 0.17 in4.3 mm
05:20 AM 41.5°F5.3°C 35.8°F2.1°C 80% 18.1 mph SSW29.1 kmh SSW 28.2 mph45.4 kmh 29.24 in990.2 mb 0.15 in3.8 mm 0.24 in6.1 mm 0.21 in5.3 mm
05:30 AM 41.2°F5.1°C 35.5°F1.9°C 80% 20.3 mph S32.7 kmh S 28.2 mph45.4 kmh 29.23 in989.8 mb 0.19 in4.8 mm 0.24 in6.1 mm 0.25 in6.4 mm
05:40 AM 41.4°F5.2°C 35.7°F2.1°C 80% 18.7 mph SSE30.1 kmh SSE 28.2 mph45.4 kmh 29.23 in989.8 mb 0.20 in5.1 mm 0.06 in1.5 mm 0.27 in6.9 mm
05:50 AM 41.4°F5.2°C 36.0°F2.2°C 81% 17.6 mph S28.3 kmh S 25.1 mph40.4 kmh 29.21 in989.2 mb 0.21 in5.3 mm 0.06 in1.5 mm 0.31 in7.9 mm
06:00 AM 41.2°F5.1°C 35.8°F2.1°C 81% 17.7 mph S28.5 kmh S 29.8 mph48.0 kmh 29.21 in989.2 mb 0.21 in5.3 mm 0.00 in0.0 mm 0.33 in8.4 mm
06:10 AM 40.8°F4.9°C 35.1°F1.7°C 80% 15.2 mph SSW24.5 kmh SSW 24.4 mph39.3 kmh 29.19 in988.5 mb 0.20 in5.1 mm 0.00 in0.0 mm 0.37 in9.4 mm
06:20 AM 40.8°F4.9°C 35.1°F1.7°C 80% 13.8 mph SW22.2 kmh SW 25.9 mph41.7 kmh 29.19 in988.5 mb 0.17 in4.3 mm 0.00 in0.0 mm 0.38 in9.7 mm
06:30 AM 41.0°F5.0°C 35.6°F2.0°C 81% 13.6 mph S21.9 kmh S 19.0 mph30.6 kmh 29.18 in988.1 mb 0.15 in3.8 mm 0.00 in0.0 mm 0.40 in10.2 mm
06:40 AM 41.5°F5.3°C 36.2°F2.3°C 81% 16.8 mph S27.0 kmh S 23.5 mph37.8 kmh 29.17 in987.8 mb 0.14 in3.6 mm 0.00 in0.0 mm 0.41 in10.4 mm
06:50 AM 41.9°F5.5°C 36.5°F2.5°C 81% 16.8 mph S27.0 kmh S 25.1 mph40.4 kmh 29.17 in987.8 mb 0.13 in3.3 mm 0.00 in0.0 mm 0.44 in11.2 mm
07:00 AM 42.1°F5.6°C 36.7°F2.6°C 81% 20.5 mph S33.0 kmh S 29.8 mph48.0 kmh 29.17 in987.8 mb 0.13 in3.3 mm 0.00 in0.0 mm 0.46 in11.7 mm
07:10 AM 42.1°F5.6°C 36.7°F2.6°C 81% 16.6 mph S26.7 kmh S 21.3 mph34.3 kmh 29.18 in988.1 mb 0.12 in3.0 mm 0.00 in0.0 mm 0.48 in12.2 mm
07:20 AM 42.1°F5.6°C 36.7°F2.6°C 81% 20.9 mph SSE33.6 kmh SSE 29.8 mph48.0 kmh 29.18 in988.1 mb 0.13 in3.3 mm 0.06 in1.5 mm 0.51 in13.0 mm
07:30 AM 42.3°F5.7°C 36.9°F2.7°C 81% 19.3 mph SSE31.1 kmh SSE 23.5 mph37.8 kmh 29.18 in988.1 mb 0.14 in3.6 mm 0.06 in1.5 mm 0.54 in13.7 mm
07:40 AM 42.1°F5.6°C 37.0°F2.8°C 82% 18.6 mph SW29.9 kmh SW 23.5 mph37.8 kmh 29.18 in988.1 mb 0.18 in4.6 mm 0.24 in6.1 mm 0.59 in15.0 mm
07:50 AM 41.9°F5.5°C 36.8°F2.7°C 82% 15.4 mph SSW24.8 kmh SSW 22.8 mph36.7 kmh 29.18 in988.1 mb 0.19 in4.8 mm 0.06 in1.5 mm 0.63 in16.0 mm
08:00 AM 41.4°F5.2°C 36.3°F2.4°C 82% 16.1 mph SSW25.9 kmh SSW 20.6 mph33.2 kmh 29.19 in988.5 mb 0.20 in5.1 mm 0.01 in0.3 mm 0.66 in16.8 mm
08:10 AM 41.2°F5.1°C 36.1°F2.3°C 82% 15.3 mph SSW24.6 kmh SSW 22.1 mph35.6 kmh 29.18 in988.1 mb 0.21 in5.3 mm 0.06 in1.5 mm 0.70 in17.8 mm
08:20 AM 41.0°F5.0°C 35.9°F2.2°C 82% 16.9 mph S27.2 kmh S 24.4 mph39.3 kmh 29.18 in988.1 mb 0.25 in6.4 mm 0.24 in6.1 mm 0.76 in19.3 mm
08:30 AM 41.2°F5.1°C 36.1°F2.3°C 82% 10.5 mph WSW16.9 kmh WSW 16.8 mph27.0 kmh 29.18 in988.1 mb 0.24 in6.1 mm 0.00 in0.0 mm 0.78 in19.8 mm
08:40 AM 41.5°F5.3°C 36.8°F2.7°C 83% 12.3 mph SSW19.8 kmh SSW 16.8 mph27.0 kmh 29.18 in988.1 mb 0.19 in4.8 mm 0.00 in0.0 mm 0.79 in20.1 mm
08:50 AM 41.4°F5.2°C 36.6°F2.6°C 83% 11.3 mph SW18.2 kmh SW 19.7 mph31.7 kmh 29.19 in988.5 mb 0.19 in4.8 mm 0.00 in0.0 mm 0.81 in20.6 mm
09:00 AM 41.2°F5.1°C 36.4°F2.4°C 83% 8.7 mph SW14.0 kmh SW 13.6 mph21.9 kmh 29.19 in988.5 mb 0.18 in4.6 mm 0.00 in0.0 mm 0.84 in21.3 mm
09:10 AM 40.5°F4.7°C 35.4°F1.9°C 82% 11.5 mph SSW18.5 kmh SSW 15.2 mph24.5 kmh 29.20 in988.8 mb 0.17 in4.3 mm 0.00 in0.0 mm 0.86 in21.8 mm
09:20 AM 39.2°F4.0°C 34.2°F1.2°C 82% 7.9 mph NW12.7 kmh NW 12.1 mph19.5 kmh 29.21 in989.2 mb 0.12 in3.0 mm 0.00 in0.0 mm 0.87 in22.1 mm
09:30 AM 38.3°F3.5°C 33.0°F0.6°C 81% 8.6 mph NNW13.8 kmh NNW 13.0 mph20.9 kmh 29.20 in988.8 mb 0.11 in2.8 mm 0.00 in0.0 mm 0.89 in22.6 mm
09:40 AM 38.7°F3.7°C 33.3°F0.7°C 81% 4.4 mph NNW7.1 kmh NNW 7.6 mph12.2 kmh 29.21 in989.2 mb 0.09 in2.3 mm 0.00 in0.0 mm 0.89 in22.6 mm
09:50 AM 39.0°F3.9°C 33.7°F0.9°C 81% 3.8 mph NNW6.1 kmh NNW 4.5 mph7.2 kmh 29.21 in989.2 mb 0.07 in1.8 mm 0.00 in0.0 mm 0.89 in22.6 mm
10:00 AM 39.7°F4.3°C 34.7°F1.5°C 82% 5.6 mph NW9.0 kmh NW 11.4 mph18.3 kmh 29.21 in989.2 mb 0.05 in1.3 mm 0.00 in0.0 mm 0.89 in22.6 mm
10:10 AM 40.8°F4.9°C 35.5°F1.9°C 81% 10.9 mph WNW17.5 kmh WNW 15.9 mph25.6 kmh 29.21 in989.2 mb 0.02 in0.5 mm 0.00 in0.0 mm 0.89 in22.6 mm
10:20 AM 41.4°F5.2°C 35.7°F2.1°C 80% 12.4 mph NW20.0 kmh NW 14.5 mph23.3 kmh 29.21 in989.2 mb 0.01 in0.3 mm 0.00 in0.0 mm 0.89 in22.6 mm
10:30 AM 41.7°F5.4°C 35.1°F1.7°C 77% 11.6 mph NW18.7 kmh NW 14.5 mph23.3 kmh 29.22 in989.5 mb 0.00 in0.0 mm 0.00 in0.0 mm 0.89 in22.6 mm
10:40 AM 41.9°F5.5°C 34.9°F1.6°C 76% 11.3 mph NW18.2 kmh NW 15.2 mph24.5 kmh 29.22 in989.5 mb 0.00 in0.0 mm 0.00 in0.0 mm 0.89 in22.6 mm
10:50 AM 42.4°F5.8°C 35.4°F1.9°C 76% 10.7 mph WNW17.2 kmh WNW 14.5 mph23.3 kmh 29.23 in989.8 mb 0.00 in0.0 mm 0.00 in0.0 mm 0.89 in22.6 mm
11:00 AM 43.0°F6.1°C 35.6°F2.0°C 75% 11.6 mph NNW18.7 kmh NNW 14.5 mph23.3 kmh 29.23 in989.8 mb 0.00 in0.0 mm 0.00 in0.0 mm 0.89 in22.6 mm
11:10 AM 43.2°F6.2°C 35.4°F1.9°C 74% 10.1 mph NNW16.3 kmh NNW 13.0 mph20.9 kmh 29.24 in990.2 mb 0.00 in0.0 mm 0.00 in0.0 mm 0.89 in22.6 mm
11:20 AM 43.2°F6.2°C 35.4°F1.9°C 74% 10.0 mph NW16.1 kmh NW 14.5 mph23.3 kmh 29.25 in990.5 mb 0.00 in0.0 mm 0.00 in0.0 mm 0.89 in22.6 mm
11:30 AM 42.8°F6.0°C 34.8°F1.6°C 73% 11.6 mph NW18.7 kmh NW 15.2 mph24.5 kmh 29.25 in990.5 mb 0.00 in0.0 mm 0.00 in0.0 mm 0.89 in22.6 mm
11:40 AM 42.8°F6.0°C 34.8°F1.6°C 73% 10.5 mph NW16.9 kmh NW 16.8 mph27.0 kmh 29.27 in991.2 mb 0.00 in0.0 mm 0.00 in0.0 mm 0.89 in22.6 mm
11:50 AM 43.0°F6.1°C 34.6°F1.4°C 72% 15.0 mph NW24.1 kmh NW 19.0 mph30.6 kmh 29.27 in991.2 mb 0.00 in0.0 mm 0.00 in0.0 mm 0.89 in22.6 mm
12:00 PM 43.2°F6.2°C 34.1°F1.2°C 70% 14.6 mph NW23.5 kmh NW 17.4 mph28.0 kmh 29.28 in991.5 mb 0.00 in0.0 mm 0.00 in0.0 mm 0.89 in22.6 mm
12:10 PM 43.0°F6.1°C 33.9°F1.1°C 70% 13.2 mph NNW21.2 kmh NNW 20.6 mph33.2 kmh 29.28 in991.5 mb 0.00 in0.0 mm 0.00 in0.0 mm 0.89 in22.6 mm
12:20 PM 43.5°F6.4°C 34.4°F1.3°C 70% 13.3 mph NNW21.4 kmh NNW 18.3 mph29.5 kmh 29.29 in991.9 mb 0.00 in0.0 mm 0.00 in0.0 mm 0.89 in22.6 mm
12:30 PM 43.3°F6.3°C 33.5°F0.8°C 68% 15.4 mph NW24.8 kmh NW 19.7 mph31.7 kmh 29.30 in992.2 mb 0.00 in0.0 mm 0.00 in0.0 mm 0.89 in22.6 mm
12:40 PM 43.9°F6.6°C 33.6°F0.9°C 67% 16.2 mph NW26.1 kmh NW 22.1 mph35.6 kmh 29.30 in992.2 mb 0.01 in0.3 mm 0.06 in1.5 mm 0.90 in22.9 mm
12:50 PM 43.7°F6.5°C 32.7°F0.4°C 65% 14.2 mph NNW22.9 kmh NNW 23.5 mph37.8 kmh 29.31 in992.6 mb 0.01 in0.3 mm 0.00 in0.0 mm 0.90 in22.9 mm
01:00 PM 94.1°F34.5°C 58.9°F14.9°C 31% 23.2 mph NW37.3 kmh NW 106.0 mph170.6 kmh 29.32 in992.9 mb 0.01 in0.3 mm 0.00 in0.0 mm 0.90 in22.9 mm
01:10 PM 45.0°F7.2°C 31.9°F-0.1°C 60% 26.6 mph SW42.8 kmh SW 106.0 mph170.6 kmh 29.32 in992.9 mb 0.01 in0.3 mm 0.00 in0.0 mm 0.90 in22.9 mm
01:20 PM 45.9°F7.7°C 29.7°F-1.3°C 53% 14.6 mph WNW23.5 kmh WNW 19.0 mph30.6 kmh 29.34 in993.6 mb 0.01 in0.3 mm 0.00 in0.0 mm 0.90 in22.9 mm
01:30 PM 45.9°F7.7°C 29.7°F-1.3°C 53% 17.8 mph NW28.6 kmh NW 23.5 mph37.8 kmh 29.34 in993.6 mb 0.01 in0.3 mm 0.00 in0.0 mm 0.90 in22.9 mm
01:40 PM 45.7°F7.6°C 30.0°F-1.1°C 54% 14.9 mph NW24.0 kmh NW 22.8 mph36.7 kmh 29.34 in993.6 mb 0.00 in0.0 mm 0.00 in0.0 mm 0.90 in22.9 mm
01:50 PM 45.1°F7.3°C 32.1°F0.1°C 60% 14.6 mph NW23.5 kmh NW 19.7 mph31.7 kmh 29.35 in993.9 mb 0.00 in0.0 mm 0.00 in0.0 mm 0.90 in22.9 mm
02:00 PM 45.7°F7.6°C 30.0°F-1.1°C 54% 13.4 mph NNW21.6 kmh NNW 22.1 mph35.6 kmh 29.35 in993.9 mb 0.00 in0.0 mm 0.00 in0.0 mm 0.90 in22.9 mm
02:10 PM 45.9°F7.7°C 29.2°F-1.6°C 52% 13.0 mph WNW20.9 kmh WNW 17.4 mph28.0 kmh 29.36 in994.2 mb 0.00 in0.0 mm 0.00 in0.0 mm 0.90 in22.9 mm
02:20 PM 45.1°F7.3°C 31.7°F-0.2°C 59% 15.3 mph NW24.6 kmh NW 23.5 mph37.8 kmh 29.37 in994.6 mb 0.00 in0.0 mm 0.00 in0.0 mm 0.90 in22.9 mm
02:30 PM 45.0°F7.2°C 31.5°F-0.3°C 59% 13.3 mph NW21.4 kmh NW 16.8 mph27.0 kmh 29.37 in994.6 mb 0.00 in0.0 mm 0.00 in0.0 mm 0.90 in22.9 mm
02:40 PM 45.5°F7.5°C 28.9°F-1.7°C 52% 15.2 mph NW24.5 kmh NW 21.3 mph34.3 kmh 29.38 in994.9 mb 0.00 in0.0 mm 0.00 in0.0 mm 0.90 in22.9 mm
02:50 PM 45.0°F7.2°C 31.1°F-0.5°C 58% 12.1 mph NW19.5 kmh NW 14.5 mph23.3 kmh 29.39 in995.3 mb 0.00 in0.0 mm 0.00 in0.0 mm 0.90 in22.9 mm
03:00 PM 45.0°F7.2°C 30.7°F-0.7°C 57% 15.2 mph WNW24.5 kmh WNW 23.5 mph37.8 kmh 29.39 in995.3 mb 0.00 in0.0 mm 0.00 in0.0 mm 0.90 in22.9 mm
03:10 PM 44.4°F6.9°C 30.2°F-1.0°C 57% 9.9 mph NW15.9 kmh NW 14.5 mph23.3 kmh 29.39 in995.3 mb 0.00 in0.0 mm 0.00 in0.0 mm 0.90 in22.9 mm
03:20 PM 44.6°F7.0°C 30.3°F-0.9°C 57% 10.0 mph NNW16.1 kmh NNW 15.2 mph24.5 kmh 29.40 in995.6 mb 0.00 in0.0 mm 0.00 in0.0 mm 0.90 in22.9 mm
03:30 PM 45.1°F7.3°C 30.4°F-0.9°C 56% 10.9 mph NNW17.5 kmh NNW 14.5 mph23.3 kmh 29.40 in995.6 mb 0.00 in0.0 mm 0.00 in0.0 mm 0.90 in22.9 mm
03:40 PM 45.5°F7.5°C 28.0°F-2.2°C 50% 10.4 mph N16.7 kmh N 14.5 mph23.3 kmh 29.41 in995.9 mb 0.00 in0.0 mm 0.00 in0.0 mm 0.90 in22.9 mm
03:50 PM 45.7°F7.6°C 27.1°F-2.7°C 48% 9.6 mph NW15.4 kmh NW 14.5 mph23.3 kmh 29.42 in996.3 mb 0.00 in0.0 mm 0.00 in0.0 mm 0.90 in22.9 mm
04:00 PM 45.3°F7.4°C 29.2°F-1.6°C 53% 10.9 mph WNW17.5 kmh WNW 14.5 mph23.3 kmh 29.42 in996.3 mb 0.00 in0.0 mm 0.00 in0.0 mm 0.90 in22.9 mm
04:10 PM 44.6°F7.0°C 28.5°F-1.9°C 53% 13.2 mph NW21.2 kmh NW 16.8 mph27.0 kmh 29.44 in997.0 mb 0.00 in0.0 mm 0.00 in0.0 mm 0.90 in22.9 mm
04:20 PM 43.7°F6.5°C 27.7°F-2.4°C 53% 12.2 mph NW19.6 kmh NW 16.8 mph27.0 kmh 29.45 in997.3 mb 0.00 in0.0 mm 0.00 in0.0 mm 0.90 in22.9 mm
04:30 PM 43.0°F6.1°C 27.0°F-2.8°C 53% 10.7 mph WNW17.2 kmh WNW 15.9 mph25.6 kmh 29.46 in997.6 mb 0.00 in0.0 mm 0.00 in0.0 mm 0.90 in22.9 mm
04:40 PM 42.6°F5.9°C 27.2°F-2.7°C 54% 11.7 mph NW18.8 kmh NW 15.9 mph25.6 kmh 29.46 in997.6 mb 0.00 in0.0 mm 0.00 in0.0 mm 0.90 in22.9 mm
04:50 PM 42.4°F5.8°C 26.5°F-3.1°C 53% 11.5 mph NW18.5 kmh NW 14.5 mph23.3 kmh 29.47 in998.0 mb 0.00 in0.0 mm 0.00 in0.0 mm 0.90 in22.9 mm
05:00 PM 42.1°F5.6°C 26.2°F-3.2°C 53% 8.7 mph NW14.0 kmh NW 13.6 mph21.9 kmh 29.48 in998.3 mb 0.00 in0.0 mm 0.00 in0.0 mm 0.90 in22.9 mm
05:10 PM 41.5°F5.3°C 25.2°F-3.8°C 52% 8.6 mph NW13.8 kmh NW 13.6 mph21.9 kmh 29.48 in998.3 mb 0.00 in0.0 mm 0.00 in0.0 mm 0.90 in22.9 mm
05:20 PM 41.2°F5.1°C 24.9°F-3.9°C 52% 7.8 mph NNW12.6 kmh NNW 13.6 mph21.9 kmh 29.48 in998.3 mb 0.00 in0.0 mm 0.00 in0.0 mm 0.90 in22.9 mm
05:30 PM 40.8°F4.9°C 25.0°F-3.9°C 53% 7.4 mph NNW11.9 kmh NNW 10.7 mph17.2 kmh 29.49 in998.6 mb 0.00 in0.0 mm 0.00 in0.0 mm 0.90 in22.9 mm
05:40 PM 40.3°F4.6°C 25.4°F-3.7°C 55% 4.1 mph NW6.6 kmh NW 7.6 mph12.2 kmh 29.49 in998.6 mb 0.00 in0.0 mm 0.00 in0.0 mm 0.90 in22.9 mm
05:50 PM 40.1°F4.5°C 26.5°F-3.1°C 58% 6.7 mph WNW10.8 kmh WNW 10.7 mph17.2 kmh 29.50 in999.0 mb 0.00 in0.0 mm 0.00 in0.0 mm 0.90 in22.9 mm
06:00 PM 39.9°F4.4°C 27.2°F-2.7°C 60% 7.1 mph NW11.4 kmh NW 9.2 mph14.8 kmh 29.51 in999.3 mb 0.00 in0.0 mm 0.00 in0.0 mm 0.90 in22.9 mm
06:10 PM 39.7°F4.3°C 27.0°F-2.8°C 60% 6.4 mph NW10.3 kmh NW 9.8 mph15.8 kmh 29.52 in999.7 mb 0.00 in0.0 mm 0.00 in0.0 mm 0.90 in22.9 mm
06:20 PM 39.6°F4.2°C 27.2°F-2.7°C 61% 7.0 mph NNW11.3 kmh NNW 9.2 mph14.8 kmh 29.52 in999.7 mb 0.00 in0.0 mm 0.00 in0.0 mm 0.90 in22.9 mm
06:30 PM 39.2°F4.0°C 26.9°F-2.8°C 61% 6.4 mph NW10.3 kmh NW 9.2 mph14.8 kmh 29.53 in1000.0 mb 0.00 in0.0 mm 0.00 in0.0 mm 0.90 in22.9 mm
06:40 PM 39.2°F4.0°C 26.9°F-2.8°C 61% 6.3 mph NW10.1 kmh NW 8.3 mph13.4 kmh 29.54 in1000.3 mb 0.00 in0.0 mm 0.00 in0.0 mm 0.90 in22.9 mm
06:50 PM 38.8°F3.8°C 26.6°F-3.0°C 61% 6.3 mph NW10.1 kmh NW 7.6 mph12.2 kmh 29.54 in1000.3 mb 0.00 in0.0 mm 0.00 in0.0 mm 0.90 in22.9 mm
07:00 PM 38.7°F3.7°C 26.4°F-3.1°C 61% 4.9 mph NW7.9 kmh NW 6.0 mph9.7 kmh 29.55 in1000.7 mb 0.00 in0.0 mm 0.00 in0.0 mm 0.90 in22.9 mm
07:10 PM 38.1°F3.4°C 25.9°F-3.4°C 61% 4.1 mph NW6.6 kmh NW 6.9 mph11.1 kmh 29.55 in1000.7 mb 0.00 in0.0 mm 0.00 in0.0 mm 0.90 in22.9 mm
07:20 PM 37.8°F3.2°C 25.9°F-3.4°C 62% 3.8 mph NW6.1 kmh NW 4.5 mph7.2 kmh 29.55 in1000.7 mb 0.00 in0.0 mm 0.00 in0.0 mm 0.90 in22.9 mm
07:30 PM 37.8°F3.2°C 25.9°F-3.4°C 62% 4.2 mph NW6.8 kmh NW 5.4 mph8.7 kmh 29.56 in1001.0 mb 0.00 in0.0 mm 0.00 in0.0 mm 0.90 in22.9 mm
07:40 PM 37.6°F3.1°C 25.8°F-3.4°C 62% 5.1 mph NW8.2 kmh NW 7.6 mph12.2 kmh 29.57 in1001.4 mb 0.00 in0.0 mm 0.00 in0.0 mm 0.90 in22.9 mm
07:50 PM 37.6°F3.1°C 25.8°F-3.4°C 62% 4.5 mph NW7.2 kmh NW 7.6 mph12.2 kmh 29.57 in1001.4 mb 0.00 in0.0 mm 0.00 in0.0 mm 0.90 in22.9 mm
08:00 PM 37.6°F3.1°C 25.8°F-3.4°C 62% 5.9 mph NW9.5 kmh NW 7.6 mph12.2 kmh 29.56 in1001.0 mb 0.00 in0.0 mm 0.00 in0.0 mm 0.90 in22.9 mm
08:10 PM 37.4°F3.0°C 25.6°F-3.6°C 62% 4.0 mph NW6.4 kmh NW 5.4 mph8.7 kmh 29.57 in1001.4 mb 0.00 in0.0 mm 0.00 in0.0 mm 0.90 in22.9 mm
08:20 PM 37.0°F2.8°C 25.2°F-3.8°C 62% 2.6 mph NNW4.2 kmh NNW 3.8 mph6.1 kmh 29.57 in1001.4 mb 0.00 in0.0 mm 0.00 in0.0 mm 0.90 in22.9 mm
08:30 PM 36.9°F2.7°C 25.1°F-3.8°C 62% 3.7 mph NW6.0 kmh NW 4.5 mph7.2 kmh 29.57 in1001.4 mb 0.00 in0.0 mm 0.00 in0.0 mm 0.90 in22.9 mm
08:40 PM 37.0°F2.8°C 25.6°F-3.6°C 63% 4.5 mph NW7.2 kmh NW 5.4 mph8.7 kmh 29.58 in1001.7 mb 0.00 in0.0 mm 0.00 in0.0 mm 0.90 in22.9 mm
08:50 PM 37.2°F2.9°C 25.4°F-3.7°C 62% 5.7 mph NW9.2 kmh NW 8.3 mph13.4 kmh 29.58 in1001.7 mb 0.00 in0.0 mm 0.00 in0.0 mm 0.90 in22.9 mm
09:00 PM 37.2°F2.9°C 25.4°F-3.7°C 62% 5.4 mph NW8.7 kmh NW 6.9 mph11.1 kmh 29.58 in1001.7 mb 0.00 in0.0 mm 0.00 in0.0 mm 0.90 in22.9 mm
09:10 PM 36.9°F2.7°C 25.1°F-3.8°C 62% 3.9 mph NW6.3 kmh NW 5.4 mph8.7 kmh 29.59 in1002.0 mb 0.00 in0.0 mm 0.00 in0.0 mm 0.90 in22.9 mm
09:20 PM 36.5°F2.5°C 24.7°F-4.1°C 62% 2.1 mph NNE3.4 kmh NNE 3.8 mph6.1 kmh 29.60 in1002.4 mb 0.00 in0.0 mm 0.00 in0.0 mm 0.90 in22.9 mm
09:30 PM 35.8°F2.1°C 24.1°F-4.4°C 62% 1.3 mph NNW2.1 kmh NNW 3.1 mph5.0 kmh 29.59 in1002.0 mb 0.00 in0.0 mm 0.00 in0.0 mm 0.90 in22.9 mm
09:40 PM 36.1°F2.3°C 24.4°F-4.2°C 62% 3.5 mph NW5.6 kmh NW 5.4 mph8.7 kmh 29.59 in1002.0 mb 0.00 in0.0 mm 0.00 in0.0 mm 0.90 in22.9 mm
09:50 PM 36.1°F2.3°C 24.4°F-4.2°C 62% 3.5 mph NW5.6 kmh NW 4.5 mph7.2 kmh 29.59 in1002.0 mb 0.00 in0.0 mm 0.00 in0.0 mm 0.90 in22.9 mm
10:00 PM 36.1°F2.3°C 24.4°F-4.2°C 62% 2.4 mph NW3.9 kmh NW 3.8 mph6.1 kmh 29.59 in1002.0 mb 0.00 in0.0 mm 0.00 in0.0 mm 0.90 in22.9 mm
10:10 PM 35.1°F1.7°C 23.4°F-4.8°C 62% 0.3 mph N0.5 kmh N 0.7 mph1.1 kmh 29.59 in1002.0 mb 0.00 in0.0 mm 0.00 in0.0 mm 0.90 in22.9 mm
10:20 PM 34.2°F1.2°C 22.5°F-5.3°C 62% 0.5 mph SSW0.8 kmh SSW 1.6 mph2.6 kmh 29.60 in1002.4 mb 0.00 in0.0 mm 0.00 in0.0 mm 0.90 in22.9 mm
10:30 PM 34.0°F1.1°C 22.4°F-5.3°C 62% 0.6 mph S1.0 kmh S 1.6 mph2.6 kmh 29.59 in1002.0 mb 0.00 in0.0 mm 0.00 in0.0 mm 0.90 in22.9 mm
10:40 PM 33.4°F0.8°C 22.6°F-5.2°C 64% 1.6 mph S2.6 kmh S 3.8 mph6.1 kmh 29.59 in1002.0 mb 0.00 in0.0 mm 0.00 in0.0 mm 0.90 in22.9 mm
10:50 PM 32.9°F0.5°C 22.8°F-5.1°C 66% 3.2 mph SSW5.1 kmh SSW 3.8 mph6.1 kmh 29.59 in1002.0 mb 0.00 in0.0 mm 0.00 in0.0 mm 0.90 in22.9 mm
11:00 PM 32.7°F0.4°C 23.3°F-4.8°C 68% 3.2 mph S5.1 kmh S 3.8 mph6.1 kmh 29.59 in1002.0 mb 0.00 in0.0 mm 0.00 in0.0 mm 0.90 in22.9 mm
11:10 PM 32.4°F0.2°C 23.4°F-4.8°C 69% 2.3 mph S3.7 kmh S 3.8 mph6.1 kmh 29.59 in1002.0 mb 0.00 in0.0 mm 0.00 in0.0 mm 0.90 in22.9 mm
11:20 PM 32.0°F0.0°C 23.0°F-5.0°C 69% 1.7 mph S2.7 kmh S 2.2 mph3.5 kmh 29.59 in1002.0 mb 0.00 in0.0 mm 0.00 in0.0 mm 0.90 in22.9 mm
11:30 PM 31.5°F-0.3°C 22.8°F-5.1°C 70% 1.2 mph S1.9 kmh S 1.6 mph2.6 kmh 29.59 in1002.0 mb 0.00 in0.0 mm 0.00 in0.0 mm 0.90 in22.9 mm
11:40 PM 31.5°F-0.3°C 22.8°F-5.1°C 70% 2.0 mph S3.2 kmh S 3.1 mph5.0 kmh 29.58 in1001.7 mb 0.00 in0.0 mm 0.00 in0.0 mm 0.90 in22.9 mm
11:50 PM 31.5°F-0.3°C 23.2°F-4.9°C 71% 2.8 mph SSW4.5 kmh SSW 6.0 mph9.7 kmh 29.59 in1002.0 mb 0.00 in0.0 mm 0.00 in0.0 mm 0.90 in22.9 mm